sensor_id;sensor_type;location;lat;lon;timestamp;P1;durP1;ratioP1;P2;durP2;ratioP2
84794;SDS011;75026;49.184;16.564;2024-03-06T00:03:14;9.75;;;6.57;;
84794;SDS011;75026;49.184;16.564;2024-03-06T00:08:15;12.85;;;6.60;;
84794;SDS011;75026;49.184;16.564;2024-03-06T00:13:16;10.88;;;7.30;;
84794;SDS011;75026;49.184;16.564;2024-03-06T00:18:16;11.40;;;6.50;;
84794;SDS011;75026;49.184;16.564;2024-03-06T00:23:17;11.93;;;6.75;;
84794;SDS011;75026;49.184;16.564;2024-03-06T00:28:18;11.63;;;6.57;;
84794;SDS011;75026;49.184;16.564;2024-03-06T00:33:19;10.77;;;6.85;;
84794;SDS011;75026;49.184;16.564;2024-03-06T00:38:20;11.13;;;7.18;;
84794;SDS011;75026;49.184;16.564;2024-03-06T00:43:20;9.75;;;6.40;;
84794;SDS011;75026;49.184;16.564;2024-03-06T00:48:21;11.48;;;6.43;;
84794;SDS011;75026;49.184;16.564;2024-03-06T00:53:22;11.45;;;6.78;;
84794;SDS011;75026;49.184;16.564;2024-03-06T00:58:23;11.15;;;6.68;;
84794;SDS011;75026;49.184;16.564;2024-03-06T01:03:24;9.18;;;5.97;;
84794;SDS011;75026;49.184;16.564;2024-03-06T01:08:25;10.50;;;6.53;;
84794;SDS011;75026;49.184;16.564;2024-03-06T01:13:26;10.77;;;6.28;;
84794;SDS011;75026;49.184;16.564;2024-03-06T01:18:27;10.65;;;6.40;;
84794;SDS011;75026;49.184;16.564;2024-03-06T01:23:28;10.68;;;6.50;;
84794;SDS011;75026;49.184;16.564;2024-03-06T01:28:28;10.77;;;6.32;;
84794;SDS011;75026;49.184;16.564;2024-03-06T01:33:29;10.45;;;6.28;;
84794;SDS011;75026;49.184;16.564;2024-03-06T01:38:30;9.35;;;6.07;;
84794;SDS011;75026;49.184;16.564;2024-03-06T01:43:36;8.40;;;5.90;;
84794;SDS011;75026;49.184;16.564;2024-03-06T01:48:38;9.75;;;6.00;;
84794;SDS011;75026;49.184;16.564;2024-03-06T01:53:39;9.52;;;6.22;;
84794;SDS011;75026;49.184;16.564;2024-03-06T01:58:40;10.45;;;6.43;;
84794;SDS011;75026;49.184;16.564;2024-03-06T02:03:45;9.48;;;6.18;;
84794;SDS011;75026;49.184;16.564;2024-03-06T02:08:46;10.48;;;6.07;;
84794;SDS011;75026;49.184;16.564;2024-03-06T02:13:49;11.85;;;6.38;;
84794;SDS011;75026;49.184;16.564;2024-03-06T02:18:53;9.32;;;5.95;;
84794;SDS011;75026;49.184;16.564;2024-03-06T02:23:54;10.25;;;5.95;;
84794;SDS011;75026;49.184;16.564;2024-03-06T02:28:55;9.48;;;5.90;;
84794;SDS011;75026;49.184;16.564;2024-03-06T02:33:56;8.18;;;5.55;;
84794;SDS011;75026;49.184;16.564;2024-03-06T02:38:59;10.48;;;6.03;;
84794;SDS011;75026;49.184;16.564;2024-03-06T02:43:59;9.88;;;5.95;;
84794;SDS011;75026;49.184;16.564;2024-03-06T02:49:00;10.35;;;6.38;;
84794;SDS011;75026;49.184;16.564;2024-03-06T02:54:01;9.25;;;5.65;;
84794;SDS011;75026;49.184;16.564;2024-03-06T02:59:02;9.07;;;5.80;;
84794;SDS011;75026;49.184;16.564;2024-03-06T03:04:03;9.55;;;6.10;;
84794;SDS011;75026;49.184;16.564;2024-03-06T03:09:04;9.23;;;5.65;;
84794;SDS011;75026;49.184;16.564;2024-03-06T03:14:05;12.02;;;6.20;;
84794;SDS011;75026;49.184;16.564;2024-03-06T03:19:07;7.95;;;5.45;;
84794;SDS011;75026;49.184;16.564;2024-03-06T03:24:08;9.20;;;5.63;;
84794;SDS011;75026;49.184;16.564;2024-03-06T03:29:10;9.05;;;5.47;;
84794;SDS011;75026;49.184;16.564;2024-03-06T03:34:11;8.88;;;5.50;;
84794;SDS011;75026;49.184;16.564;2024-03-06T03:39:12;8.82;;;5.55;;
84794;SDS011;75026;49.184;16.564;2024-03-06T03:44:16;9.30;;;5.45;;
84794;SDS011;75026;49.184;16.564;2024-03-06T03:49:21;8.90;;;5.30;;
84794;SDS011;75026;49.184;16.564;2024-03-06T03:54:21;8.70;;;5.43;;
84794;SDS011;75026;49.184;16.564;2024-03-06T03:59:22;9.75;;;5.22;;
84794;SDS011;75026;49.184;16.564;2024-03-06T04:04:23;7.93;;;5.28;;
84794;SDS011;75026;49.184;16.564;2024-03-06T04:09:24;8.82;;;5.47;;
84794;SDS011;75026;49.184;16.564;2024-03-06T04:14:25;8.13;;;5.22;;
84794;SDS011;75026;49.184;16.564;2024-03-06T04:19:27;8.75;;;5.60;;
84794;SDS011;75026;49.184;16.564;2024-03-06T04:24:27;9.25;;;5.45;;
84794;SDS011;75026;49.184;16.564;2024-03-06T04:29:29;8.60;;;5.25;;
84794;SDS011;75026;49.184;16.564;2024-03-06T04:34:30;8.93;;;5.10;;
84794;SDS011;75026;49.184;16.564;2024-03-06T04:39:31;8.57;;;5.18;;
84794;SDS011;75026;49.184;16.564;2024-03-06T04:44:33;8.32;;;5.00;;
84794;SDS011;75026;49.184;16.564;2024-03-06T04:49:34;7.72;;;5.07;;
84794;SDS011;75026;49.184;16.564;2024-03-06T04:54:35;8.75;;;5.70;;
84794;SDS011;75026;49.184;16.564;2024-03-06T04:59:36;8.02;;;5.30;;
84794;SDS011;75026;49.184;16.564;2024-03-06T05:04:37;7.05;;;5.00;;
84794;SDS011;75026;49.184;16.564;2024-03-06T05:09:38;7.47;;;4.72;;
84794;SDS011;75026;49.184;16.564;2024-03-06T05:14:39;8.57;;;5.13;;
84794;SDS011;75026;49.184;16.564;2024-03-06T05:19:39;7.65;;;4.72;;
84794;SDS011;75026;49.184;16.564;2024-03-06T05:24:41;8.07;;;5.05;;
84794;SDS011;75026;49.184;16.564;2024-03-06T05:29:43;8.13;;;5.10;;
84794;SDS011;75026;49.184;16.564;2024-03-06T05:34:44;8.15;;;5.20;;
84794;SDS011;75026;49.184;16.564;2024-03-06T05:39:45;7.38;;;4.75;;
84794;SDS011;75026;49.184;16.564;2024-03-06T05:44:45;7.00;;;4.70;;
84794;SDS011;75026;49.184;16.564;2024-03-06T05:49:49;7.75;;;4.88;;
84794;SDS011;75026;49.184;16.564;2024-03-06T05:54:49;7.68;;;4.68;;
84794;SDS011;75026;49.184;16.564;2024-03-06T05:59:51;6.88;;;4.65;;
84794;SDS011;75026;49.184;16.564;2024-03-06T06:04:53;7.72;;;4.68;;
84794;SDS011;75026;49.184;16.564;2024-03-06T06:09:53;6.88;;;4.50;;
84794;SDS011;75026;49.184;16.564;2024-03-06T06:14:54;6.28;;;4.07;;
84794;SDS011;75026;49.184;16.564;2024-03-06T06:19:55;6.90;;;4.60;;
84794;SDS011;75026;49.184;16.564;2024-03-06T06:24:56;6.47;;;4.25;;
84794;SDS011;75026;49.184;16.564;2024-03-06T06:29:58;7.20;;;4.45;;
84794;SDS011;75026;49.184;16.564;2024-03-06T06:34:59;6.55;;;4.35;;
84794;SDS011;75026;49.184;16.564;2024-03-06T06:40:00;6.75;;;4.43;;
84794;SDS011;75026;49.184;16.564;2024-03-06T06:45:07;6.68;;;4.40;;
84794;SDS011;75026;49.184;16.564;2024-03-06T06:50:10;6.90;;;4.43;;
84794;SDS011;75026;49.184;16.564;2024-03-06T06:55:12;5.70;;;3.88;;
84794;SDS011;75026;49.184;16.564;2024-03-06T07:00:13;6.70;;;4.28;;
84794;SDS011;75026;49.184;16.564;2024-03-06T07:05:17;6.13;;;3.90;;
84794;SDS011;75026;49.184;16.564;2024-03-06T07:10:18;6.25;;;4.00;;
84794;SDS011;75026;49.184;16.564;2024-03-06T07:15:19;6.00;;;4.00;;
84794;SDS011;75026;49.184;16.564;2024-03-06T07:20:20;6.20;;;4.00;;
84794;SDS011;75026;49.184;16.564;2024-03-06T07:25:21;6.45;;;4.20;;
84794;SDS011;75026;49.184;16.564;2024-03-06T07:30:22;5.80;;;3.92;;
84794;SDS011;75026;49.184;16.564;2024-03-06T07:35:23;7.15;;;4.22;;
84794;SDS011;75026;49.184;16.564;2024-03-06T07:40:24;6.68;;;4.10;;
84794;SDS011;75026;49.184;16.564;2024-03-06T07:45:25;5.68;;;3.92;;
84794;SDS011;75026;49.184;16.564;2024-03-06T07:50:27;5.35;;;3.75;;
84794;SDS011;75026;49.184;16.564;2024-03-06T07:55:28;6.63;;;4.38;;
84794;SDS011;75026;49.184;16.564;2024-03-06T08:00:29;8.10;;;4.18;;
84794;SDS011;75026;49.184;16.564;2024-03-06T08:05:31;7.15;;;4.00;;
84794;SDS011;75026;49.184;16.564;2024-03-06T08:10:49;9.10;;;4.10;;
84794;SDS011;75026;49.184;16.564;2024-03-06T08:16:05;6.80;;;4.03;;
84794;SDS011;75026;49.184;16.564;2024-03-06T08:21:09;7.63;;;4.43;;
84794;SDS011;75026;49.184;16.564;2024-03-06T08:26:13;6.03;;;4.13;;
84794;SDS011;75026;49.184;16.564;2024-03-06T08:37:35;5.85;;;3.70;;
84794;SDS011;75026;49.184;16.564;2024-03-06T08:42:36;6.70;;;3.90;;
84794;SDS011;75026;49.184;16.564;2024-03-06T08:47:37;8.55;;;4.30;;
84794;SDS011;75026;49.184;16.564;2024-03-06T08:52:39;9.18;;;5.40;;
84794;SDS011;75026;49.184;16.564;2024-03-06T08:57:40;9.35;;;5.57;;
84794;SDS011;75026;49.184;16.564;2024-03-06T09:02:43;10.18;;;5.82;;
84794;SDS011;75026;49.184;16.564;2024-03-06T09:14:06;11.00;;;5.72;;
84794;SDS011;75026;49.184;16.564;2024-03-06T09:19:06;13.63;;;5.28;;
84794;SDS011;75026;49.184;16.564;2024-03-06T09:24:07;8.57;;;4.88;;
84794;SDS011;75026;49.184;16.564;2024-03-06T09:29:08;9.18;;;4.80;;
84794;SDS011;75026;49.184;16.564;2024-03-06T09:34:09;10.40;;;5.22;;
84794;SDS011;75026;49.184;16.564;2024-03-06T09:39:16;9.57;;;4.90;;
84794;SDS011;75026;49.184;16.564;2024-03-06T09:44:21;8.05;;;4.60;;
84794;SDS011;75026;49.184;16.564;2024-03-06T09:49:22;9.20;;;4.93;;
84794;SDS011;75026;49.184;16.564;2024-03-06T10:13:29;11.10;;;4.60;;
84794;SDS011;75026;49.184;16.564;2024-03-06T10:18:30;9.32;;;5.30;;
84794;SDS011;75026;49.184;16.564;2024-03-06T10:23:34;10.27;;;4.78;;
84794;SDS011;75026;49.184;16.564;2024-03-06T10:28:35;10.88;;;4.93;;
84794;SDS011;75026;49.184;16.564;2024-03-06T10:33:36;28.58;;;6.60;;
84794;SDS011;75026;49.184;16.564;2024-03-06T10:38:38;35.47;;;7.88;;
84794;SDS011;75026;49.184;16.564;2024-03-06T10:43:44;22.98;;;6.63;;
84794;SDS011;75026;49.184;16.564;2024-03-06T11:00:40;13.55;;;6.05;;
84794;SDS011;75026;49.184;16.564;2024-03-06T11:05:42;18.98;;;6.03;;
84794;SDS011;75026;49.184;16.564;2024-03-06T11:11:46;17.40;;;5.47;;
84794;SDS011;75026;49.184;16.564;2024-03-06T11:16:30;18.67;;;7.10;;
84794;SDS011;75026;49.184;16.564;2024-03-06T11:21:34;19.50;;;5.90;;
84794;SDS011;75026;49.184;16.564;2024-03-06T11:32:08;13.52;;;5.60;;
84794;SDS011;75026;49.184;16.564;2024-03-06T11:37:11;14.25;;;5.03;;
84794;SDS011;75026;49.184;16.564;2024-03-06T11:42:12;11.32;;;5.10;;
84794;SDS011;75026;49.184;16.564;2024-03-06T11:47:14;13.38;;;5.00;;
84794;SDS011;75026;49.184;16.564;2024-03-06T11:52:15;12.43;;;5.20;;
84794;SDS011;75026;49.184;16.564;2024-03-06T11:57:15;16.10;;;5.50;;
84794;SDS011;75026;49.184;16.564;2024-03-06T12:02:28;11.13;;;4.80;;
84794;SDS011;75026;49.184;16.564;2024-03-06T12:07:29;10.85;;;5.32;;
84794;SDS011;75026;49.184;16.564;2024-03-06T12:12:30;11.35;;;4.88;;
84794;SDS011;75026;49.184;16.564;2024-03-06T12:17:31;11.15;;;5.03;;
84794;SDS011;75026;49.184;16.564;2024-03-06T12:22:31;12.75;;;4.85;;
84794;SDS011;75026;49.184;16.564;2024-03-06T12:27:32;8.77;;;4.50;;
84794;SDS011;75026;49.184;16.564;2024-03-06T12:32:34;9.93;;;4.78;;
84794;SDS011;75026;49.184;16.564;2024-03-06T12:37:35;13.15;;;5.13;;
84794;SDS011;75026;49.184;16.564;2024-03-06T12:42:36;7.47;;;4.53;;
84794;SDS011;75026;49.184;16.564;2024-03-06T12:47:38;10.90;;;5.10;;
84794;SDS011;75026;49.184;16.564;2024-03-06T12:52:51;10.05;;;4.75;;
84794;SDS011;75026;49.184;16.564;2024-03-06T12:58:08;9.55;;;4.70;;
84794;SDS011;75026;49.184;16.564;2024-03-06T13:03:13;11.65;;;4.90;;
84794;SDS011;75026;49.184;16.564;2024-03-06T13:08:14;8.85;;;4.53;;
84794;SDS011;75026;49.184;16.564;2024-03-06T13:13:15;6.63;;;4.20;;
84794;SDS011;75026;49.184;16.564;2024-03-06T13:18:16;9.45;;;4.45;;
84794;SDS011;75026;49.184;16.564;2024-03-06T13:23:17;10.25;;;4.53;;
84794;SDS011;75026;49.184;16.564;2024-03-06T13:28:18;9.05;;;4.93;;
84794;SDS011;75026;49.184;16.564;2024-03-06T13:33:21;8.02;;;4.22;;
84794;SDS011;75026;49.184;16.564;2024-03-06T13:38:24;5.90;;;4.03;;
84794;SDS011;75026;49.184;16.564;2024-03-06T13:43:25;8.63;;;4.40;;
84794;SDS011;75026;49.184;16.564;2024-03-06T13:48:25;7.57;;;4.40;;
84794;SDS011;75026;49.184;16.564;2024-03-06T13:53:26;8.70;;;4.50;;
84794;SDS011;75026;49.184;16.564;2024-03-06T13:58:28;8.73;;;4.70;;
84794;SDS011;75026;49.184;16.564;2024-03-06T14:03:29;9.32;;;4.43;;
84794;SDS011;75026;49.184;16.564;2024-03-06T14:13:44;7.93;;;4.30;;
84794;SDS011;75026;49.184;16.564;2024-03-06T14:18:51;7.15;;;4.40;;
84794;SDS011;75026;49.184;16.564;2024-03-06T14:23:53;14.18;;;4.70;;
84794;SDS011;75026;49.184;16.564;2024-03-06T14:29:13;9.95;;;4.28;;
84794;SDS011;75026;49.184;16.564;2024-03-06T14:34:15;8.60;;;4.55;;
84794;SDS011;75026;49.184;16.564;2024-03-06T14:39:15;8.05;;;4.15;;
84794;SDS011;75026;49.184;16.564;2024-03-06T14:44:16;8.40;;;4.78;;
84794;SDS011;75026;49.184;16.564;2024-03-06T14:49:18;12.65;;;4.65;;
84794;SDS011;75026;49.184;16.564;2024-03-06T14:54:19;7.68;;;4.15;;
84794;SDS011;75026;49.184;16.564;2024-03-06T14:59:21;7.38;;;4.38;;
84794;SDS011;75026;49.184;16.564;2024-03-06T15:04:22;8.93;;;4.22;;
84794;SDS011;75026;49.184;16.564;2024-03-06T15:09:23;10.43;;;4.07;;
84794;SDS011;75026;49.184;16.564;2024-03-06T15:14:26;7.32;;;4.57;;
84794;SDS011;75026;49.184;16.564;2024-03-06T15:19:30;7.07;;;4.18;;
84794;SDS011;75026;49.184;16.564;2024-03-06T15:24:31;9.20;;;4.40;;
84794;SDS011;75026;49.184;16.564;2024-03-06T15:29:34;8.85;;;4.18;;
84794;SDS011;75026;49.184;16.564;2024-03-06T15:40:14;6.53;;;3.78;;
84794;SDS011;75026;49.184;16.564;2024-03-06T15:45:15;7.50;;;4.18;;
84794;SDS011;75026;49.184;16.564;2024-03-06T15:50:16;7.82;;;4.10;;
84794;SDS011;75026;49.184;16.564;2024-03-06T15:55:17;6.47;;;3.88;;
84794;SDS011;75026;49.184;16.564;2024-03-06T16:00:18;7.55;;;4.03;;
84794;SDS011;75026;49.184;16.564;2024-03-06T16:05:19;5.88;;;3.80;;
84794;SDS011;75026;49.184;16.564;2024-03-06T16:10:20;7.93;;;4.05;;
84794;SDS011;75026;49.184;16.564;2024-03-06T16:15:21;8.52;;;3.95;;
84794;SDS011;75026;49.184;16.564;2024-03-06T16:20:22;9.18;;;3.75;;
84794;SDS011;75026;49.184;16.564;2024-03-06T16:25:22;5.85;;;3.95;;
84794;SDS011;75026;49.184;16.564;2024-03-06T16:30:23;9.25;;;4.40;;
84794;SDS011;75026;49.184;16.564;2024-03-06T16:35:24;13.50;;;4.80;;
84794;SDS011;75026;49.184;16.564;2024-03-06T16:40:25;9.73;;;4.47;;
84794;SDS011;75026;49.184;16.564;2024-03-06T16:45:25;9.27;;;4.50;;
84794;SDS011;75026;49.184;16.564;2024-03-06T16:50:26;14.20;;;4.72;;
84794;SDS011;75026;49.184;16.564;2024-03-06T16:55:28;8.90;;;4.57;;
84794;SDS011;75026;49.184;16.564;2024-03-06T17:00:31;14.25;;;4.70;;
84794;SDS011;75026;49.184;16.564;2024-03-06T17:05:33;8.65;;;4.20;;
84794;SDS011;75026;49.184;16.564;2024-03-06T17:10:34;9.15;;;4.55;;
84794;SDS011;75026;49.184;16.564;2024-03-06T17:15:35;10.00;;;4.47;;
84794;SDS011;75026;49.184;16.564;2024-03-06T17:20:36;12.10;;;4.35;;
84794;SDS011;75026;49.184;16.564;2024-03-06T17:25:38;10.02;;;4.35;;
84794;SDS011;75026;49.184;16.564;2024-03-06T17:30:46;9.57;;;4.47;;
84794;SDS011;75026;49.184;16.564;2024-03-06T17:35:50;6.95;;;4.00;;
84794;SDS011;75026;49.184;16.564;2024-03-06T17:40:56;7.60;;;4.38;;
84794;SDS011;75026;49.184;16.564;2024-03-06T17:46:00;6.80;;;4.15;;
84794;SDS011;75026;49.184;16.564;2024-03-06T17:51:08;7.03;;;4.20;;
84794;SDS011;75026;49.184;16.564;2024-03-06T17:56:17;7.18;;;4.05;;
84794;SDS011;75026;49.184;16.564;2024-03-06T18:01:19;8.50;;;4.20;;
84794;SDS011;75026;49.184;16.564;2024-03-06T18:06:26;8.95;;;4.15;;
84794;SDS011;75026;49.184;16.564;2024-03-06T18:11:27;6.82;;;3.95;;
84794;SDS011;75026;49.184;16.564;2024-03-06T18:16:28;9.07;;;4.10;;
84794;SDS011;75026;49.184;16.564;2024-03-06T18:21:29;7.15;;;4.00;;
84794;SDS011;75026;49.184;16.564;2024-03-06T18:26:30;7.15;;;3.90;;
84794;SDS011;75026;49.184;16.564;2024-03-06T18:31:31;6.70;;;4.05;;
84794;SDS011;75026;49.184;16.564;2024-03-06T18:36:32;7.55;;;4.05;;
84794;SDS011;75026;49.184;16.564;2024-03-06T18:41:33;8.05;;;4.43;;
84794;SDS011;75026;49.184;16.564;2024-03-06T18:46:37;7.43;;;4.05;;
84794;SDS011;75026;49.184;16.564;2024-03-06T18:51:38;7.97;;;4.22;;
84794;SDS011;75026;49.184;16.564;2024-03-06T18:56:39;8.13;;;4.97;;
84794;SDS011;75026;49.184;16.564;2024-03-06T19:01:41;8.45;;;4.60;;
84794;SDS011;75026;49.184;16.564;2024-03-06T19:06:42;13.77;;;5.28;;
84794;SDS011;75026;49.184;16.564;2024-03-06T19:11:43;8.98;;;4.82;;
84794;SDS011;75026;49.184;16.564;2024-03-06T19:16:44;10.52;;;5.10;;
84794;SDS011;75026;49.184;16.564;2024-03-06T19:21:45;9.10;;;4.63;;
84794;SDS011;75026;49.184;16.564;2024-03-06T19:27:02;9.88;;;4.60;;
84794;SDS011;75026;49.184;16.564;2024-03-06T19:32:07;9.73;;;5.07;;
84794;SDS011;75026;49.184;16.564;2024-03-06T19:37:10;8.25;;;4.55;;
84794;SDS011;75026;49.184;16.564;2024-03-06T19:42:13;9.38;;;5.00;;
84794;SDS011;75026;49.184;16.564;2024-03-06T19:47:18;18.95;;;4.82;;
84794;SDS011;75026;49.184;16.564;2024-03-06T19:52:22;9.25;;;4.93;;
84794;SDS011;75026;49.184;16.564;2024-03-06T19:57:23;9.80;;;4.95;;
84794;SDS011;75026;49.184;16.564;2024-03-06T20:02:24;8.57;;;4.45;;
84794;SDS011;75026;49.184;16.564;2024-03-06T20:07:25;7.63;;;4.53;;
84794;SDS011;75026;49.184;16.564;2024-03-06T20:12:26;10.07;;;4.85;;
84794;SDS011;75026;49.184;16.564;2024-03-06T20:17:36;8.27;;;4.53;;
84794;SDS011;75026;49.184;16.564;2024-03-06T20:22:37;9.23;;;4.60;;
84794;SDS011;75026;49.184;16.564;2024-03-06T20:27:39;7.65;;;4.70;;
84794;SDS011;75026;49.184;16.564;2024-03-06T20:32:41;10.30;;;4.63;;
84794;SDS011;75026;49.184;16.564;2024-03-06T20:37:42;10.07;;;5.40;;
84794;SDS011;75026;49.184;16.564;2024-03-06T20:42:43;10.10;;;5.53;;
84794;SDS011;75026;49.184;16.564;2024-03-06T20:47:45;11.07;;;5.15;;
84794;SDS011;75026;49.184;16.564;2024-03-06T20:52:45;8.88;;;4.65;;
84794;SDS011;75026;49.184;16.564;2024-03-06T20:57:47;10.13;;;4.90;;
84794;SDS011;75026;49.184;16.564;2024-03-06T21:02:48;11.02;;;5.30;;
84794;SDS011;75026;49.184;16.564;2024-03-06T21:07:50;9.70;;;5.18;;
84794;SDS011;75026;49.184;16.564;2024-03-06T21:12:50;8.63;;;4.88;;
84794;SDS011;75026;49.184;16.564;2024-03-06T21:17:52;8.98;;;4.60;;
84794;SDS011;75026;49.184;16.564;2024-03-06T21:22:53;8.02;;;4.45;;
84794;SDS011;75026;49.184;16.564;2024-03-06T21:27:54;7.65;;;4.80;;
84794;SDS011;75026;49.184;16.564;2024-03-06T21:32:55;8.07;;;4.20;;
84794;SDS011;75026;49.184;16.564;2024-03-06T21:37:56;8.60;;;4.45;;
84794;SDS011;75026;49.184;16.564;2024-03-06T21:42:57;8.52;;;4.43;;
84794;SDS011;75026;49.184;16.564;2024-03-06T21:47:58;9.23;;;4.38;;
84794;SDS011;75026;49.184;16.564;2024-03-06T21:52:59;6.60;;;4.15;;
84794;SDS011;75026;49.184;16.564;2024-03-06T21:58:01;9.32;;;4.20;;
84794;SDS011;75026;49.184;16.564;2024-03-06T22:03:05;7.35;;;3.90;;
84794;SDS011;75026;49.184;16.564;2024-03-06T22:08:06;7.15;;;4.20;;
84794;SDS011;75026;49.184;16.564;2024-03-06T22:13:09;7.70;;;4.10;;
84794;SDS011;75026;49.184;16.564;2024-03-06T22:18:10;7.35;;;3.97;;
84794;SDS011;75026;49.184;16.564;2024-03-06T22:23:13;8.38;;;4.18;;
84794;SDS011;75026;49.184;16.564;2024-03-06T22:28:14;8.57;;;4.65;;
84794;SDS011;75026;49.184;16.564;2024-03-06T22:33:18;9.73;;;4.50;;
84794;SDS011;75026;49.184;16.564;2024-03-06T22:38:42;7.28;;;4.40;;
84794;SDS011;75026;49.184;16.564;2024-03-06T22:54:18;8.32;;;4.72;;
84794;SDS011;75026;49.184;16.564;2024-03-06T22:59:19;9.13;;;4.80;;
84794;SDS011;75026;49.184;16.564;2024-03-06T23:04:20;7.32;;;4.50;;
84794;SDS011;75026;49.184;16.564;2024-03-06T23:09:24;7.13;;;4.05;;
84794;SDS011;75026;49.184;16.564;2024-03-06T23:14:31;8.90;;;3.97;;
84794;SDS011;75026;49.184;16.564;2024-03-06T23:19:33;7.95;;;3.88;;
84794;SDS011;75026;49.184;16.564;2024-03-06T23:24:34;6.97;;;4.30;;
84794;SDS011;75026;49.184;16.564;2024-03-06T23:29:36;6.88;;;4.22;;
84794;SDS011;75026;49.184;16.564;2024-03-06T23:34:37;6.80;;;4.10;;
84794;SDS011;75026;49.184;16.564;2024-03-06T23:39:38;7.05;;;3.95;;
84794;SDS011;75026;49.184;16.564;2024-03-06T23:44:39;7.40;;;3.78;;
84794;SDS011;75026;49.184;16.564;2024-03-06T23:49:40;10.10;;;3.92;;
84794;SDS011;75026;49.184;16.564;2024-03-06T23:54:41;6.35;;;4.10;;
84794;SDS011;75026;49.184;16.564;2024-03-06T23:59:45;7.57;;;3.78;;
